MNG6893 ZMCK-UHHH
Flight info
| Callsign | MNG6893 |
|---|---|
| Flight time | N/A |
| Altitude | 35100 |
| Route | KIDID G338 AKTOS/K0839S1130 G338 KAGAK A345 HLD B451 HRB G212 ARGUK ARGU6C/05L |
| Aircraft | A319/M-SDE3FGHIRWY/LB1 |
Departure
| Time | 2026-04-23 12:38 |
|---|---|
| Airport | Ulaanbaatar Chinggis Khaan International Airport (ZMCK) |
Arrival
| Time | N/A |
|---|---|
| Airport | Khabarovsk Novy Airport (UHHH) |
| Time | Latitude | Longitude | Altitude | Speed | Heading |
|---|---|---|---|---|---|
| 2026-04-23 12:26 | 47.65044 | 106.82220 | 4492 ft | 0 kts | 356° |
| 2026-04-23 12:26 | 47.65043 | 106.82220 | 4492 ft | 1 kts | 356° |
| 2026-04-23 12:26 | 47.65034 | 106.82221 | 4492 ft | 2 kts | 355° |
| 2026-04-23 12:26 | 47.65019 | 106.82224 | 4492 ft | 2 kts | 356° |
| 2026-04-23 12:27 | 47.65004 | 106.82225 | 4492 ft | 2 kts | 355° |
| 2026-04-23 12:27 | 47.64989 | 106.82227 | 4492 ft | 2 kts | 356° |
| 2026-04-23 12:27 | 47.64980 | 106.82227 | 4492 ft | 2 kts | 356° |
| 2026-04-23 12:27 | 47.64957 | 106.82228 | 4492 ft | 2 kts | 18° |
| 2026-04-23 12:28 | 47.64947 | 106.82221 | 4492 ft | 2 kts | 33° |
| 2026-04-23 12:28 | 47.64934 | 106.82204 | 4492 ft | 2 kts | 59° |
| 2026-04-23 12:28 | 47.64929 | 106.82183 | 4492 ft | 2 kts | 82° |
| 2026-04-23 12:28 | 47.64929 | 106.82162 | 4492 ft | 1 kts | 103° |
| 2026-04-23 12:29 | 47.64931 | 106.82153 | 4492 ft | 0 kts | 105° |
| 2026-04-23 12:30 | 47.64930 | 106.82156 | 4492 ft | 3 kts | 105° |
| 2026-04-23 12:31 | 47.64920 | 106.82213 | 4491 ft | 13 kts | 105° |
| 2026-04-23 12:31 | 47.64896 | 106.82354 | 4492 ft | 13 kts | 104° |
| 2026-04-23 12:31 | 47.64874 | 106.82478 | 4491 ft | 11 kts | 105° |
| 2026-04-23 12:31 | 47.64812 | 106.82589 | 4492 ft | 10 kts | 151° |
| 2026-04-23 12:32 | 47.64774 | 106.82624 | 4491 ft | 9 kts | 139° |
| 2026-04-23 12:32 | 47.64743 | 106.82700 | 4491 ft | 8 kts | 104° |
| 2026-04-23 12:32 | 47.64730 | 106.82770 | 4491 ft | 7 kts | 105° |
| 2026-04-23 12:32 | 47.64699 | 106.82951 | 4492 ft | 16 kts | 104° |
| 2026-04-23 12:33 | 47.64678 | 106.83070 | 4491 ft | 18 kts | 106° |
| 2026-04-23 12:33 | 47.64643 | 106.83264 | 4492 ft | 19 kts | 103° |
| 2026-04-23 12:33 | 47.64610 | 106.83449 | 4491 ft | 17 kts | 105° |
| 2026-04-23 12:33 | 47.64572 | 106.83662 | 4491 ft | 14 kts | 105° |
| 2026-04-23 12:34 | 47.64549 | 106.83799 | 4492 ft | 12 kts | 103° |
| 2026-04-23 12:34 | 47.64529 | 106.83921 | 4492 ft | 11 kts | 104° |
| 2026-04-23 12:34 | 47.64515 | 106.83994 | 4492 ft | 10 kts | 106° |
| 2026-04-23 12:34 | 47.64490 | 106.84122 | 4491 ft | 8 kts | 105° |
| 2026-04-23 12:35 | 47.64475 | 106.84206 | 4492 ft | 7 kts | 104° |
| 2026-04-23 12:35 | 47.64462 | 106.84264 | 4491 ft | 7 kts | 117° |
| 2026-04-23 12:35 | 47.64437 | 106.84309 | 4491 ft | 6 kts | 140° |
| 2026-04-23 12:35 | 47.64397 | 106.84331 | 4491 ft | 7 kts | 184° |
| 2026-04-23 12:36 | 47.64307 | 106.84286 | 4492 ft | 16 kts | 217° |
| 2026-04-23 12:36 | 47.64296 | 106.84246 | 4492 ft | 7 kts | 274° |
| 2026-04-23 12:36 | 47.64302 | 106.84196 | 4491 ft | 0 kts | 285° |
| 2026-04-23 12:37 | 47.64303 | 106.84193 | 4491 ft | 3 kts | 285° |
| 2026-04-23 12:38 | 47.64386 | 106.83754 | 4492 ft | 89 kts | 284° |
| 2026-04-23 12:38 | 47.64524 | 106.82994 | 4492 ft | 140 kts | 289° |
| 2026-04-23 12:38 | 47.64850 | 106.80756 | 5196 ft | 171 kts | 284° |
| 2026-04-23 12:38 | 47.65008 | 106.79680 | 5718 ft | 168 kts | 286° |
| 2026-04-23 12:39 | 47.65243 | 106.78296 | 6479 ft | 161 kts | 289° |
| 2026-04-23 12:39 | 47.65560 | 106.76646 | 7024 ft | 174 kts | 290° |
| 2026-04-23 12:39 | 47.65914 | 106.74838 | 7509 ft | 191 kts | 289° |
| 2026-04-23 12:39 | 47.66417 | 106.72162 | 8159 ft | 215 kts | 285° |
| 2026-04-23 12:40 | 47.66375 | 106.69820 | 8555 ft | 243 kts | 257° |
| 2026-04-23 12:40 | 47.65871 | 106.68276 | 8782 ft | 263 kts | 235° |
| 2026-04-23 12:40 | 47.64400 | 106.66590 | 9417 ft | 281 kts | 204° |
| 2026-04-23 12:40 | 47.62431 | 106.66251 | 9912 ft | 301 kts | 170° |
| 2026-04-23 12:41 | 47.59927 | 106.68158 | 10518 ft | 317 kts | 138° |
| 2026-04-23 12:41 | 47.58295 | 106.70484 | 10813 ft | 333 kts | 134° |
| 2026-04-23 12:41 | 47.57731 | 106.71339 | 10949 ft | 340 kts | 134° |
| 2026-04-23 12:41 | 47.55458 | 106.74686 | 11499 ft | 362 kts | 135° |
| 2026-04-23 12:42 | 47.53599 | 106.77262 | 12096 ft | 371 kts | 137° |
| 2026-04-23 12:42 | 47.51667 | 106.79849 | 12830 ft | 376 kts | 137° |
| 2026-04-23 12:42 | 47.49749 | 106.82379 | 13481 ft | 382 kts | 137° |
| 2026-04-23 12:42 | 47.47073 | 106.85938 | 14310 ft | 390 kts | 134° |
| 2026-04-23 12:43 | 47.45955 | 106.87972 | 14672 ft | 393 kts | 120° |
| 2026-04-23 12:43 | 47.44971 | 106.91746 | 15267 ft | 392 kts | 96° |
| 2026-04-23 12:43 | 47.45179 | 106.97056 | 16056 ft | 385 kts | 67° |
| 2026-04-23 12:43 | 47.46224 | 107.00705 | 16662 ft | 385 kts | 59° |
| 2026-04-23 12:44 | 47.47009 | 107.03142 | 17042 ft | 389 kts | 58° |
| 2026-04-23 12:44 | 47.48182 | 107.06739 | 17588 ft | 394 kts | 58° |
| 2026-04-23 12:44 | 47.49377 | 107.10433 | 18156 ft | 399 kts | 58° |
| 2026-04-23 12:44 | 47.50080 | 107.12631 | 18500 ft | 401 kts | 58° |
| 2026-04-23 12:45 | 47.51689 | 107.17709 | 19242 ft | 408 kts | 58° |
| 2026-04-23 12:45 | 47.52946 | 107.21704 | 19777 ft | 413 kts | 58° |
| 2026-04-23 12:45 | 47.54155 | 107.25566 | 20285 ft | 417 kts | 58° |
| 2026-04-23 12:45 | 47.55387 | 107.29517 | 20777 ft | 422 kts | 58° |
| 2026-04-23 12:46 | 47.56511 | 107.33124 | 21206 ft | 426 kts | 58° |
| 2026-04-23 12:46 | 47.57655 | 107.36806 | 21628 ft | 431 kts | 58° |
| 2026-04-23 12:46 | 47.59110 | 107.41499 | 22124 ft | 437 kts | 58° |
| 2026-04-23 12:46 | 47.60810 | 107.46990 | 22692 ft | 443 kts | 58° |
| 2026-04-23 12:47 | 47.61723 | 107.49946 | 22999 ft | 446 kts | 58° |
| 2026-04-23 12:47 | 47.63153 | 107.54584 | 23463 ft | 451 kts | 58° |
| 2026-04-23 12:47 | 47.64557 | 107.59145 | 23895 ft | 456 kts | 58° |
| 2026-04-23 12:47 | 47.66009 | 107.63872 | 24329 ft | 460 kts | 58° |
| 2026-04-23 12:48 | 47.67883 | 107.70010 | 24975 ft | 463 kts | 59° |
| 2026-04-23 12:48 | 47.68855 | 107.73206 | 25294 ft | 465 kts | 58° |
| 2026-04-23 12:48 | 47.70264 | 107.77834 | 25663 ft | 470 kts | 58° |
| 2026-04-23 12:48 | 47.71617 | 107.82276 | 26007 ft | 474 kts | 58° |
| 2026-04-23 12:49 | 47.72973 | 107.86794 | 26357 ft | 480 kts | 60° |
| 2026-04-23 12:49 | 47.74116 | 107.91449 | 26687 ft | 489 kts | 67° |
| 2026-04-23 12:49 | 47.74939 | 107.96387 | 27161 ft | 495 kts | 75° |
| 2026-04-23 12:49 | 47.75447 | 108.01458 | 27836 ft | 493 kts | 77° |
| 2026-04-23 12:50 | 47.75866 | 108.06509 | 28105 ft | 500 kts | 78° |
| 2026-04-23 12:50 | 47.76276 | 108.11672 | 28264 ft | 508 kts | 78° |
| 2026-04-23 12:50 | 47.76607 | 108.15861 | 28471 ft | 512 kts | 78° |
| 2026-04-23 12:50 | 47.77040 | 108.21310 | 28874 ft | 514 kts | 78° |
| 2026-04-23 12:51 | 47.77483 | 108.26703 | 29151 ft | 519 kts | 78° |
| 2026-04-23 12:51 | 47.77932 | 108.32134 | 29445 ft | 523 kts | 78° |
| 2026-04-23 12:51 | 47.78382 | 108.37595 | 29721 ft | 527 kts | 78° |
| 2026-04-23 12:51 | 47.78830 | 108.43042 | 29925 ft | 530 kts | 78° |
| 2026-04-23 12:52 | 47.79442 | 108.50544 | 30495 ft | 530 kts | 79° |
| 2026-04-23 12:52 | 47.79733 | 108.54115 | 30768 ft | 530 kts | 79° |
| 2026-04-23 12:52 | 47.80179 | 108.59628 | 31144 ft | 531 kts | 79° |